Time;durP1;ratioP1;P1;durP2;ratioP2;P2;SDS_P1;SDS_P2;PMS_P1;PMS_P2;Temp;Humidity;BMP_temperature;BMP_pressure;BME280_temperature;BME280_humidity;BME280_pressure;Samples;Min_cycle;Max_cycle;Signal;HPM_P1;HPM_P2
2021/12/15 00:02:25;;;;;;;34.17;22.17;;;8.00;99.90;;;;;;5061387;28;20210;-81
2021/12/15 00:04:56;;;;;;;33.20;20.45;;;8.00;99.90;;;;;;5058453;28;20187;-81
2021/12/15 00:07:25;;;;;;;36.63;20.38;;;8.00;99.90;;;;;;5062611;28;20366;-81
2021/12/15 00:09:52;;;;;;;29.75;19.30;;;8.30;99.90;;;;;;5066959;28;20225;-81
2021/12/15 00:12:19;;;;;;;40.08;21.65;;;7.80;99.90;;;;;;5064807;28;20283;-81
2021/12/15 00:14:47;;;;;;;33.20;19.70;;;8.20;99.90;;;;;;5063772;28;20531;-81
2021/12/15 00:17:14;;;;;;;36.33;22.10;;;8.40;99.90;;;;;;5061111;28;20237;-81
2021/12/15 00:19:42;;;;;;;37.65;22.38;;;8.40;99.90;;;;;;5061500;28;20292;-82
2021/12/15 00:22:10;;;;;;;29.80;17.45;;;8.30;99.90;;;;;;5061031;28;20261;-81
2021/12/15 00:24:37;;;;;;;37.17;21.95;;;8.40;99.90;;;;;;5061282;28;20628;-81
2021/12/15 00:27:04;;;;;;;40.13;21.40;;;8.40;99.90;;;;;;5084467;22;20231;-84
2021/12/15 00:29:31;;;;;;;34.65;20.27;;;8.10;99.90;;;;;;5067255;28;20223;-86
2021/12/15 00:32:03;;;;;;;34.33;20.98;;;8.10;99.90;;;;;;5078577;28;20219;-85
2021/12/15 00:34:30;;;;;;;30.25;18.42;;;7.80;99.90;;;;;;5076084;28;20190;-86
2021/12/15 00:36:57;;;;;;;36.10;20.88;;;8.10;99.90;;;;;;5071001;28;20221;-86
2021/12/15 00:39:27;;;;;;;38.85;20.27;;;7.80;99.90;;;;;;5078845;28;20227;-87
2021/12/15 00:41:53;;;;;;;36.92;20.42;;;7.70;99.90;;;;;;5073964;28;20280;-86
2021/12/15 00:44:21;;;;;;;34.97;20.25;;;7.90;99.90;;;;;;5070550;28;20271;-86
2021/12/15 00:46:50;;;;;;;37.38;19.98;;;8.10;99.90;;;;;;5067182;28;20228;-86
2021/12/15 00:49:17;;;;;;;36.33;20.23;;;8.00;99.90;;;;;;5068915;28;20237;-85
2021/12/15 00:51:44;;;;;;;37.90;20.48;;;8.20;99.90;;;;;;5067247;28;20294;-87
2021/12/15 00:54:12;;;;;;;28.23;17.92;;;8.40;99.90;;;;;;5066830;28;20203;-86
2021/12/15 00:56:40;;;;;;;28.83;16.90;;;8.20;99.90;;;;;;5065199;28;20207;-86
2021/12/15 00:59:09;;;;;;;30.80;19.77;;;7.80;99.90;;;;;;5067731;28;20223;-85
2021/12/15 01:01:37;;;;;;;33.35;17.40;;;8.10;99.90;;;;;;5067685;28;20269;-87
2021/12/15 01:04:06;;;;;;;30.55;16.52;;;8.00;99.90;;;;;;5068270;28;20271;-85
2021/12/15 01:06:34;;;;;;;23.35;14.25;;;8.40;99.90;;;;;;5067353;28;20228;-86
2021/12/15 01:09:08;;;;;;;22.10;13.57;;;7.80;99.90;;;;;;5067566;28;20758;-86
2021/12/15 01:11:54;;;;;;;23.10;14.73;;;8.10;99.90;;;;;;5066724;28;20198;-86
2021/12/15 01:14:34;;;;;;;20.10;14.70;;;7.80;99.90;;;;;;5065627;28;20562;-87
2021/12/15 01:19:53;;;;;;;22.67;15.43;;;8.00;99.90;;;;;;5072225;28;20194;-85
2021/12/15 01:22:25;;;;;;;25.17;14.55;;;7.50;99.90;;;;;;5066645;28;20203;-87
2021/12/15 01:24:55;;;;;;;37.95;16.35;;;8.00;99.90;;;;;;5066864;28;20195;-86
2021/12/15 01:27:22;;;;;;;29.15;17.00;;;8.00;99.90;;;;;;5065159;28;20224;-86
2021/12/15 01:29:50;;;;;;;29.58;17.67;;;8.00;99.90;;;;;;5065584;28;20651;-85
2021/12/15 01:32:17;;;;;;;25.88;16.77;;;7.50;99.90;;;;;;5064777;28;20746;-85
2021/12/15 01:34:44;;;;;;;26.17;18.27;;;7.90;99.90;;;;;;5064920;28;20208;-87
2021/12/15 01:37:12;;;;;;;31.35;19.60;;;7.90;99.90;;;;;;5064491;28;20209;-86
2021/12/15 01:39:39;;;;;;;32.20;18.40;;;8.10;99.90;;;;;;5066129;28;20207;-85
2021/12/15 01:42:07;;;;;;;29.40;17.67;;;8.00;99.90;;;;;;5069920;28;20194;-86
2021/12/15 01:47:20;;;;;;;28.90;18.38;;;8.30;99.90;;;;;;5075688;28;20198;-87
2021/12/15 01:49:50;;;;;;;29.92;16.80;;;7.70;99.90;;;;;;5066238;28;20213;-87
2021/12/15 01:52:22;;;;;;;30.40;18.13;;;7.80;99.90;;;;;;5065614;28;20211;-86
2021/12/15 01:54:54;;;;;;;27.05;16.70;;;8.10;99.90;;;;;;5065720;28;20188;-87
2021/12/15 01:57:23;;;;;;;30.95;18.40;;;8.10;99.90;;;;;;5066881;28;20222;-86
2021/12/15 01:59:53;;;;;;;30.63;18.98;;;8.00;99.90;;;;;;5071437;28;20215;-83
2021/12/15 02:02:23;;;;;;;35.78;19.63;;;7.70;99.90;;;;;;5075623;28;20253;-84
2021/12/15 02:04:51;;;;;;;36.88;20.42;;;7.60;99.90;;;;;;5074730;28;20202;-85
2021/12/15 02:07:19;;;;;;;31.38;18.90;;;7.60;99.90;;;;;;5075281;28;20254;-83
2021/12/15 02:10:02;;;;;;;35.58;18.77;;;7.60;99.90;;;;;;5074591;28;20234;-85
2021/12/15 02:12:35;;;;;;;34.55;19.90;;;7.60;99.90;;;;;;5069027;28;20196;-87
2021/12/15 02:15:06;;;;;;;32.40;19.63;;;7.80;99.90;;;;;;5065318;28;20346;-86
2021/12/15 02:17:35;;;;;;;34.95;21.15;;;8.00;99.90;;;;;;5064689;28;20661;-86
2021/12/15 02:20:02;;;;;;;34.05;19.80;;;7.70;99.90;;;;;;5065342;28;20207;-86
2021/12/15 02:22:31;;;;;;;35.15;20.45;;;7.90;99.90;;;;;;5064410;28;20227;-86
2021/12/15 02:24:58;;;;;;;30.58;18.42;;;7.90;99.90;;;;;;5072630;28;20213;-83
2021/12/15 02:27:31;;;;;;;34.30;19.33;;;7.60;99.90;;;;;;5068637;28;20265;-86
2021/12/15 02:30:06;;;;;;;31.60;18.85;;;8.10;99.90;;;;;;5072560;28;20183;-83
2021/12/15 02:32:45;;;;;;;30.58;18.85;;;7.90;99.90;;;;;;5078760;28;20305;-85
2021/12/15 02:37:58;;;;;;;30.90;17.60;;;7.90;99.90;;;;;;5071259;28;20230;-86
2021/12/15 02:40:25;;;;;;;30.30;18.10;;;8.50;99.90;;;;;;5076866;28;20267;-86
2021/12/15 02:42:52;;;;;;;33.42;17.52;;;7.90;99.90;;;;;;5072275;28;20270;-86
2021/12/15 02:45:22;;;;;;;30.55;18.80;;;7.70;99.90;;;;;;5068386;28;20216;-86
2021/12/15 02:47:49;;;;;;;28.63;15.85;;;8.00;99.90;;;;;;5066078;28;20233;-84
2021/12/15 02:50:23;;;;;;;29.60;17.63;;;8.20;99.90;;;;;;5067112;28;20231;-86
2021/12/15 02:52:50;;;;;;;31.02;19.10;;;8.30;99.90;;;;;;5067553;28;20197;-86
2021/12/15 02:55:19;;;;;;;30.50;18.27;;;8.20;99.90;;;;;;5066307;28;20213;-83
2021/12/15 02:57:47;;;;;;;27.95;16.48;;;7.90;99.90;;;;;;5072570;28;20207;-85
2021/12/15 03:00:21;;;;;;;29.77;17.98;;;7.70;99.90;;;;;;5081389;28;20199;-83
2021/12/15 03:05:42;;;;;;;27.02;16.98;;;8.00;99.90;;;;;;5069585;28;20198;-87
2021/12/15 03:08:13;;;;;;;26.13;16.08;;;8.20;99.90;;;;;;5070111;28;20711;-85
2021/12/15 03:16:15;;;;;;;23.85;15.98;;;8.40;99.90;;;;;;5068560;28;20186;-85
2021/12/15 03:18:42;;;;;;;30.67;18.65;;;7.90;99.90;;;;;;5067343;28;20247;-88
2021/12/15 03:21:13;;;;;;;27.75;16.40;;;8.10;99.90;;;;;;5068081;28;20218;-86
2021/12/15 03:23:47;;;;;;;21.20;13.02;;;7.70;99.90;;;;;;5069610;28;20290;-85
2021/12/15 03:26:19;;;;;;;21.15;13.20;;;7.70;99.90;;;;;;5079778;28;20240;-86
2021/12/15 03:34:37;;;;;;;17.73;11.43;;;8.00;99.90;;;;;;5081032;28;20243;-84
2021/12/15 03:37:19;;;;;;;17.83;10.35;;;8.10;99.90;;;;;;5067197;28;20197;-84
2021/12/15 03:39:46;;;;;;;14.23;8.40;;;8.20;99.90;;;;;;5067947;28;20210;-84
2021/12/15 03:42:18;;;;;;;13.02;8.70;;;8.30;99.90;;;;;;5065877;28;20219;-85
2021/12/15 03:44:47;;;;;;;13.40;9.32;;;8.20;99.90;;;;;;5068429;28;20211;-84
2021/12/15 03:47:19;;;;;;;11.98;7.93;;;8.30;99.90;;;;;;5067694;28;20717;-86
2021/12/15 03:49:46;;;;;;;11.77;8.10;;;7.90;99.90;;;;;;5067936;28;20192;-85
2021/12/15 03:52:15;;;;;;;9.63;6.75;;;8.00;99.90;;;;;;5068279;28;20638;-86
2021/12/15 03:54:44;;;;;;;8.63;6.05;;;8.30;99.90;;;;;;5068269;28;20297;-86
2021/12/15 03:57:12;;;;;;;10.45;6.68;;;8.30;99.90;;;;;;5072737;28;20263;-86
2021/12/15 03:59:43;;;;;;;8.93;6.30;;;8.30;99.90;;;;;;5070046;28;20210;-87
2021/12/15 04:02:12;;;;;;;6.82;4.60;;;8.30;99.90;;;;;;5069763;28;20202;-87
2021/12/15 04:04:40;;;;;;;7.88;4.60;;;7.90;99.90;;;;;;5067478;28;20208;-87
2021/12/15 04:07:08;;;;;;;9.10;5.07;;;8.00;99.90;;;;;;5066793;28;20213;-86
2021/12/15 04:09:35;;;;;;;8.50;5.55;;;8.40;99.90;;;;;;5067708;28;20274;-86
2021/12/15 04:12:02;;;;;;;10.35;6.50;;;8.00;99.90;;;;;;5068150;28;20208;-86
2021/12/15 04:14:35;;;;;;;8.93;6.38;;;8.40;99.90;;;;;;5068992;28;20271;-85
2021/12/15 04:17:05;;;;;;;9.88;5.30;;;8.60;99.90;;;;;;5064864;28;20191;-86
2021/12/15 04:19:34;;;;;;;9.13;5.90;;;8.20;99.90;;;;;;5063968;28;20191;-85
2021/12/15 04:22:02;;;;;;;10.65;6.43;;;8.40;99.90;;;;;;5064034;28;20204;-86
2021/12/15 04:24:29;;;;;;;9.30;6.88;;;8.40;99.90;;;;;;5068988;28;20212;-86
2021/12/15 04:26:59;;;;;;;9.65;6.90;;;8.10;99.90;;;;;;5069865;28;20215;-86
2021/12/15 04:29:27;;;;;;;10.38;6.53;;;8.00;99.90;;;;;;5070413;28;20296;-85
2021/12/15 04:31:59;;;;;;;10.40;6.78;;;8.50;99.90;;;;;;5076503;28;20203;-83
2021/12/15 04:34:28;;;;;;;9.27;6.25;;;8.00;99.90;;;;;;5073109;28;20251;-86
2021/12/15 04:36:55;;;;;;;10.23;6.50;;;8.40;99.90;;;;;;5069612;28;20583;-86
2021/12/15 04:39:25;;;;;;;12.88;7.40;;;8.20;99.90;;;;;;5067501;28;20228;-87
2021/12/15 04:41:53;;;;;;;9.13;6.43;;;8.30;99.90;;;;;;5067228;28;20678;-86
2021/12/15 04:44:23;;;;;;;11.50;6.70;;;8.40;99.90;;;;;;5065974;28;20288;-87
2021/12/15 04:47:00;;;;;;;9.10;5.40;;;8.40;99.90;;;;;;5067522;28;20690;-85
2021/12/15 04:49:31;;;;;;;8.63;5.70;;;8.20;99.90;;;;;;5066138;28;20254;-86
2021/12/15 04:51:58;;;;;;;8.25;5.75;;;8.40;99.90;;;;;;5069648;28;20201;-86
2021/12/15 04:54:26;;;;;;;9.70;6.53;;;8.40;99.90;;;;;;5068839;28;20202;-85
2021/12/15 04:56:53;;;;;;;12.43;7.35;;;8.00;99.90;;;;;;5067997;28;20715;-86
2021/12/15 04:59:20;;;;;;;11.23;7.40;;;8.40;99.90;;;;;;5067127;28;20232;-87
2021/12/15 05:01:48;;;;;;;10.80;8.00;;;8.50;99.90;;;;;;5065864;28;20248;-86
2021/12/15 05:04:16;;;;;;;10.85;7.40;;;8.00;99.90;;;;;;5066295;28;20235;-86
2021/12/15 05:06:45;;;;;;;8.50;5.45;;;8.50;99.90;;;;;;5065070;28;20291;-87
2021/12/15 05:09:14;;;;;;;10.77;7.25;;;8.50;99.90;;;;;;5065070;28;20233;-87
2021/12/15 05:11:41;;;;;;;10.00;6.63;;;8.50;99.90;;;;;;5069163;28;20230;-86
2021/12/15 05:14:07;;;;;;;8.68;6.30;;;8.10;99.90;;;;;;5078246;28;20206;-86
2021/12/15 05:16:34;;;;;;;8.55;5.60;;;8.10;99.90;;;;;;5067934;28;20212;-87
2021/12/15 05:19:02;;;;;;;8.13;5.75;;;8.20;99.90;;;;;;5066182;28;20257;-86
2021/12/15 05:21:30;;;;;;;7.57;5.75;;;8.10;99.90;;;;;;5065865;28;20298;-86
2021/12/15 05:24:07;;;;;;;9.00;6.75;;;8.30;99.90;;;;;;5065470;28;20206;-86
2021/12/15 05:26:34;;;;;;;9.60;6.75;;;8.30;99.90;;;;;;5068214;28;20180;-85
2021/12/15 05:29:01;;;;;;;8.75;6.03;;;8.10;99.90;;;;;;5070066;28;20238;-86
2021/12/15 05:31:28;;;;;;;10.25;7.95;;;8.40;99.90;;;;;;5065438;28;20216;-86
2021/12/15 05:33:55;;;;;;;9.68;6.93;;;8.40;99.90;;;;;;5068160;28;20200;-83
2021/12/15 05:36:22;;;;;;;10.82;7.35;;;8.00;99.90;;;;;;5077011;28;20226;-84
2021/12/15 05:38:49;;;;;;;11.07;7.65;;;7.90;99.90;;;;;;5076349;28;20233;-84
2021/12/15 05:41:17;;;;;;;9.10;7.07;;;8.30;99.90;;;;;;5069604;28;20263;-86
2021/12/15 05:43:44;;;;;;;7.93;5.80;;;8.30;99.90;;;;;;5074881;28;20255;-86
2021/12/15 05:46:11;;;;;;;7.38;4.50;;;8.30;99.90;;;;;;5070334;28;20204;-86
2021/12/15 05:48:37;;;;;;;7.10;4.00;;;7.80;99.90;;;;;;5065687;28;20242;-86
2021/12/15 05:51:04;;;;;;;6.15;4.53;;;8.20;99.90;;;;;;5065730;28;20214;-87
2021/12/15 05:53:31;;;;;;;6.13;3.92;;;8.30;99.90;;;;;;5065785;28;20322;-86
2021/12/15 05:55:58;;;;;;;14.63;9.90;;;8.20;99.90;;;;;;5065184;28;20203;-86
2021/12/15 05:58:28;;;;;;;11.48;7.80;;;7.90;99.90;;;;;;5066963;28;20245;-86
2021/12/15 06:00:54;;;;;;;12.02;8.68;;;8.40;99.90;;;;;;5069111;28;20207;-85
2021/12/15 06:03:21;;;;;;;13.27;10.20;;;8.30;99.90;;;;;;5067019;28;20302;-86
2021/12/15 06:05:48;;;;;;;14.55;9.40;;;7.90;99.90;;;;;;5067661;28;20237;-86
2021/12/15 06:08:15;;;;;;;12.57;9.80;;;8.30;99.90;;;;;;5069984;28;20229;-85
2021/12/15 06:10:42;;;;;;;14.05;10.25;;;8.30;99.90;;;;;;5069955;28;20206;-85
2021/12/15 06:13:12;;;;;;;14.18;10.40;;;8.30;99.90;;;;;;5068976;28;20215;-85
2021/12/15 06:15:42;;;;;;;15.75;10.75;;;8.20;99.90;;;;;;5068995;28;20290;-85
2021/12/15 06:18:11;;;;;;;13.73;10.60;;;8.40;99.90;;;;;;5069329;28;20224;-85
2021/12/15 06:20:39;;;;;;;14.80;9.90;;;8.40;99.90;;;;;;5079239;28;20222;-86
2021/12/15 06:23:11;;;;;;;12.50;8.07;;;8.50;99.90;;;;;;5081395;28;20219;-84
2021/12/15 06:25:39;;;;;;;11.70;8.05;;;8.40;99.90;;;;;;5079949;28;20632;-84
2021/12/15 06:28:06;;;;;;;10.68;7.68;;;8.30;99.90;;;;;;5100469;22;20607;-81
2021/12/15 06:30:34;;;;;;;11.73;8.10;;;8.30;99.90;;;;;;5068920;28;20208;-81
2021/12/15 06:33:03;;;;;;;9.07;7.10;;;8.10;99.90;;;;;;5064723;28;20204;-81
2021/12/15 06:35:30;;;;;;;10.20;7.22;;;8.00;99.90;;;;;;5072633;28;20203;-82
2021/12/15 06:37:57;;;;;;;12.10;8.50;;;8.20;99.90;;;;;;5074233;28;20223;-82
2021/12/15 06:40:24;;;;;;;11.43;8.20;;;8.20;99.90;;;;;;5068848;28;20207;-82
2021/12/15 06:42:51;;;;;;;10.25;8.10;;;8.10;99.90;;;;;;5063000;28;20211;-82
2021/12/15 06:45:23;;;;;;;11.80;9.10;;;8.30;99.90;;;;;;5062578;28;20301;-82
2021/12/15 06:58:56;;;;;;;13.48;9.70;;;8.20;99.90;;;;;;5029197;28;20219;-82
2021/12/15 07:01:23;;;;;;;14.98;11.10;;;8.30;99.90;;;;;;5063635;28;20214;-82
2021/12/15 07:03:50;;;;;;;17.00;11.90;;;8.30;99.90;;;;;;5062910;28;20203;-80
2021/12/15 07:06:19;;;;;;;14.65;10.65;;;8.20;99.90;;;;;;5065778;28;20645;-81
2021/12/15 07:08:46;;;;;;;13.35;9.88;;;8.20;99.90;;;;;;5067657;28;20227;-79
2021/12/15 07:11:13;;;;;;;13.30;9.65;;;8.40;99.90;;;;;;5067350;28;20206;-80
2021/12/15 07:13:39;;;;;;;12.82;9.38;;;8.30;99.90;;;;;;5061996;28;20208;-81
2021/12/15 07:16:08;;;;;;;11.90;8.77;;;8.30;99.90;;;;;;5063476;28;20210;-80
2021/12/15 07:18:42;;;;;;;13.45;9.68;;;8.40;99.90;;;;;;5066830;28;20265;-79
2021/12/15 07:21:16;;;;;;;14.30;9.85;;;8.60;99.90;;;;;;5069984;28;20217;-79
2021/12/15 07:23:44;;;;;;;15.48;9.82;;;8.20;99.90;;;;;;5063553;28;20194;-80
2021/12/15 07:26:12;;;;;;;17.23;10.80;;;8.10;99.90;;;;;;5061088;28;20210;-80
2021/12/15 07:28:38;;;;;;;17.80;11.98;;;8.20;99.90;;;;;;5061001;28;20241;-80
2021/12/15 07:31:06;;;;;;;16.73;11.93;;;7.80;99.90;;;;;;5060073;28;20271;-81
2021/12/15 07:33:33;;;;;;;20.30;11.20;;;8.30;99.90;;;;;;5060920;28;20217;-79
2021/12/15 07:36:00;;;;;;;15.85;11.45;;;8.10;99.90;;;;;;5061128;28;20206;-82
2021/12/15 07:38:29;;;;;;;18.63;12.60;;;8.40;99.90;;;;;;5063950;28;20227;-83
2021/12/15 07:40:58;;;;;;;20.95;13.77;;;7.90;99.90;;;;;;5064461;28;20554;-83
2021/12/15 07:43:25;;;;;;;19.20;12.30;;;8.20;99.90;;;;;;5062873;28;20229;-86
2021/12/15 07:45:56;;;;;;;19.00;11.98;;;7.70;99.90;;;;;;5061758;28;20278;-79
2021/12/15 07:48:27;;;;;;;16.10;11.10;;;8.10;99.90;;;;;;5061201;28;20226;-83
2021/12/15 07:50:57;;;;;;;18.52;12.60;;;8.20;99.90;;;;;;5062070;28;20190;-83
2021/12/15 07:53:24;;;;;;;16.02;12.90;;;7.80;99.90;;;;;;5061340;28;20187;-82
2021/12/15 07:55:53;;;;;;;19.15;13.18;;;8.10;99.90;;;;;;5062101;28;20206;-83
2021/12/15 07:58:22;;;;;;;17.67;11.27;;;8.10;99.90;;;;;;5061933;28;20265;-81
2021/12/15 08:00:51;;;;;;;18.65;12.27;;;8.10;99.90;;;;;;5061382;28;20210;-81
2021/12/15 08:03:18;;;;;;;19.52;13.55;;;8.00;99.90;;;;;;5061172;28;20212;-83
2021/12/15 08:05:47;;;;;;;15.25;11.38;;;8.10;99.90;;;;;;5060189;28;20226;-82
2021/12/15 08:08:14;;;;;;;15.57;11.55;;;8.30;99.90;;;;;;5060648;28;20226;-82
2021/12/15 08:10:42;;;;;;;18.75;12.95;;;8.20;99.90;;;;;;5060885;28;20194;-80
2021/12/15 08:13:09;;;;;;;16.15;10.80;;;8.20;99.90;;;;;;5062488;28;20207;-85
2021/12/15 08:15:39;;;;;;;16.05;10.55;;;7.90;99.90;;;;;;5064079;28;20271;-85
2021/12/15 08:18:06;;;;;;;15.15;10.50;;;8.40;99.90;;;;;;5061469;28;20226;-84
2021/12/15 08:20:36;;;;;;;15.13;9.85;;;7.80;99.90;;;;;;5062527;28;20206;-85
2021/12/15 08:23:03;;;;;;;12.68;9.02;;;7.90;99.90;;;;;;5062871;28;20609;-84
2021/12/15 08:25:31;;;;;;;21.90;13.82;;;8.40;99.90;;;;;;5063984;28;20226;-87
2021/12/15 08:27:59;;;;;;;12.65;8.95;;;8.30;99.90;;;;;;5063559;28;20302;-84
2021/12/15 08:30:29;;;;;;;14.30;9.50;;;8.30;99.90;;;;;;5062296;28;20253;-84
2021/12/15 08:33:00;;;;;;;13.73;8.77;;;8.00;99.90;;;;;;5062590;28;20644;-84
2021/12/15 08:35:30;;;;;;;12.98;8.90;;;8.20;99.90;;;;;;5060646;28;20628;-85
2021/12/15 08:37:57;;;;;;;12.88;8.95;;;8.10;99.90;;;;;;5061132;28;20712;-80
2021/12/15 08:40:26;;;;;;;11.90;8.48;;;8.20;99.90;;;;;;5058436;28;20207;-80
2021/12/15 08:42:54;;;;;;;11.95;7.88;;;8.20;99.90;;;;;;5057628;28;20222;-79
2021/12/15 08:45:21;;;;;;;10.00;7.35;;;8.10;99.90;;;;;;5057999;28;20237;-79
2021/12/15 08:47:51;;;;;;;12.73;8.23;;;8.40;99.90;;;;;;5059693;28;20231;-79
2021/12/15 08:50:26;;;;;;;10.60;7.18;;;8.20;99.90;;;;;;5061843;28;20232;-84
2021/12/15 08:52:53;;;;;;;12.48;8.05;;;8.40;99.90;;;;;;5061508;28;20260;-83
2021/12/15 08:55:20;;;;;;;9.23;6.63;;;8.00;99.90;;;;;;5061542;28;20212;-80
2021/12/15 08:57:50;;;;;;;10.93;7.88;;;8.30;99.90;;;;;;5059897;28;20696;-81
2021/12/15 09:00:19;;;;;;;12.73;7.85;;;8.50;99.90;;;;;;5059391;28;20203;-80
2021/12/15 09:02:47;;;;;;;12.27;7.55;;;8.30;99.90;;;;;;5060584;28;20243;-80
2021/12/15 09:05:20;;;;;;;10.07;7.05;;;8.40;99.90;;;;;;5061813;28;20257;-80
2021/12/15 09:07:49;;;;;;;10.57;6.55;;;8.40;99.90;;;;;;5063695;28;20294;-79
2021/12/15 09:10:16;;;;;;;11.10;7.60;;;8.30;99.90;;;;;;5063887;28;20299;-79
2021/12/15 09:12:43;;;;;;;10.55;6.57;;;8.60;99.90;;;;;;5065012;28;20204;-79
2021/12/15 09:15:11;;;;;;;11.23;6.85;;;8.30;99.90;;;;;;5063405;28;20232;-79
2021/12/15 09:17:38;;;;;;;11.88;6.82;;;8.60;99.90;;;;;;5063946;28;20610;-80
2021/12/15 09:20:06;;;;;;;10.05;6.93;;;8.50;99.90;;;;;;5063097;28;20668;-80
2021/12/15 09:22:34;;;;;;;13.85;7.60;;;8.60;99.90;;;;;;5061019;28;20207;-80
2021/12/15 09:25:03;;;;;;;9.57;6.00;;;8.60;99.90;;;;;;5064093;28;20256;-83
2021/12/15 09:27:29;;;;;;;11.32;6.45;;;8.50;99.90;;;;;;5064408;28;20211;-79
2021/12/15 09:29:56;;;;;;;9.90;6.38;;;8.50;99.90;;;;;;5062083;28;20226;-79
2021/12/15 09:32:24;;;;;;;13.70;6.47;;;8.30;99.90;;;;;;5062202;28;20187;-80
2021/12/15 09:34:51;;;;;;;9.65;6.20;;;8.40;99.90;;;;;;5063086;28;20202;-79
2021/12/15 09:37:19;;;;;;;10.02;6.85;;;8.30;99.90;;;;;;5067505;28;20235;-80
2021/12/15 09:39:47;;;;;;;10.43;6.65;;;8.50;99.90;;;;;;5063500;28;20717;-79
2021/12/15 09:42:19;;;;;;;10.38;6.82;;;8.30;99.90;;;;;;5062394;28;20210;-80
2021/12/15 09:44:49;;;;;;;10.93;5.85;;;8.50;99.90;;;;;;5060453;28;20710;-79
2021/12/15 09:47:21;;;;;;;8.57;5.40;;;8.40;99.90;;;;;;5060989;28;20664;-81
2021/12/15 10:03:56;;;;;;;10.93;5.93;;;8.30;99.90;;;;;;5057276;28;20202;-79
2021/12/15 10:06:34;;;;;;;8.32;5.30;;;7.80;99.90;;;;;;5056246;28;20286;-79
2021/12/15 10:12:07;;;;;;;7.68;5.32;;;8.20;99.90;;;;;;5055981;28;20721;-79
2021/12/15 10:17:39;;;;;;;7.95;6.20;;;8.40;99.90;;;;;;5057014;28;20199;-81
2021/12/15 10:20:08;;;;;;;8.95;5.78;;;8.20;99.90;;;;;;5056589;28;20183;-80
2021/12/15 10:22:39;;;;;;;10.65;6.90;;;8.20;99.90;;;;;;5057081;28;20205;-80
2021/12/15 10:25:11;;;;;;;8.68;5.90;;;7.70;99.90;;;;;;5057186;28;20219;-81
2021/12/15 10:27:42;;;;;;;10.38;6.95;;;8.10;99.90;;;;;;5056505;28;20199;-82
2021/12/15 10:30:25;;;;;;;10.02;7.03;;;8.10;99.90;;;;;;5058627;28;20221;-80
2021/12/15 10:32:56;;;;;;;11.00;7.18;;;8.10;99.90;;;;;;5059127;28;20242;-79
2021/12/15 10:35:26;;;;;;;11.65;8.10;;;7.90;99.90;;;;;;5056941;28;20572;-82
2021/12/15 10:38:10;;;;;;;13.80;8.10;;;8.00;99.90;;;;;;5057529;28;20232;-80
2021/12/15 10:40:41;;;;;;;13.88;9.45;;;8.20;99.90;;;;;;5057194;28;20235;-80
2021/12/15 10:43:08;;;;;;;11.77;7.43;;;8.30;99.90;;;;;;5056515;28;20673;-80
2021/12/15 10:45:39;;;;;;;10.73;7.07;;;8.30;99.90;;;;;;5056522;28;20207;-82
2021/12/15 10:48:14;;;;;;;9.90;7.30;;;8.30;99.90;;;;;;5057356;28;20237;-82
2021/12/15 10:50:42;;;;;;;10.93;7.22;;;8.20;99.90;;;;;;5056344;28;20214;-81
2021/12/15 10:53:09;;;;;;;9.90;6.60;;;8.00;99.90;;;;;;5059844;28;20272;-82
2021/12/15 10:55:38;;;;;;;11.70;8.68;;;8.50;99.90;;;;;;5061298;28;20686;-81
2021/12/15 10:58:32;;;;;;;12.52;8.32;;;8.20;99.90;;;;;;5061078;28;20231;-80
2021/12/15 11:01:01;;;;;;;9.90;6.95;;;8.20;99.90;;;;;;5061423;28;20203;-80
2021/12/15 11:03:34;;;;;;;12.63;8.27;;;8.30;99.90;;;;;;5061151;28;20211;-81
2021/12/15 11:06:01;;;;;;;10.95;7.43;;;8.40;99.90;;;;;;5060928;28;20555;-80
2021/12/15 11:08:28;;;;;;;10.93;7.63;;;8.30;99.90;;;;;;5062301;28;20222;-80
2021/12/15 11:10:55;;;;;;;12.07;7.20;;;8.40;99.90;;;;;;5062079;28;20264;-83
2021/12/15 11:13:24;;;;;;;9.52;7.13;;;8.20;99.90;;;;;;5064620;28;20739;-82
2021/12/15 11:15:53;;;;;;;10.00;6.85;;;8.40;99.90;;;;;;5070170;28;20215;-82
2021/12/15 11:18:23;;;;;;;13.00;8.20;;;8.00;99.90;;;;;;5068930;28;20618;-78
2021/12/15 11:20:52;;;;;;;11.15;7.43;;;8.40;99.90;;;;;;5065950;28;20287;-84
2021/12/15 11:23:20;;;;;;;9.27;6.60;;;8.40;99.90;;;;;;5067227;28;20207;-83
2021/12/15 11:25:50;;;;;;;9.93;6.45;;;8.40;99.90;;;;;;5070113;28;20207;-83
2021/12/15 11:28:23;;;;;;;13.13;8.38;;;8.40;99.90;;;;;;5066295;28;20322;-85
2021/12/15 11:30:54;;;;;;;12.52;8.52;;;8.40;99.90;;;;;;5063244;28;20235;-85
2021/12/15 11:33:25;;;;;;;10.77;8.13;;;8.40;99.90;;;;;;5063104;28;20256;-85
2021/12/15 11:35:57;;;;;;;11.50;8.38;;;8.40;99.90;;;;;;5067032;28;20197;-83
2021/12/15 11:38:27;;;;;;;11.77;7.20;;;8.20;99.90;;;;;;5074160;28;20243;-83
2021/12/15 11:41:07;;;;;;;11.43;7.28;;;8.40;99.90;;;;;;5073909;28;20203;-84
2021/12/15 11:43:40;;;;;;;9.75;6.03;;;8.50;99.90;;;;;;5074031;28;20267;-84
2021/12/15 11:46:20;;;;;;;9.80;6.88;;;8.40;99.90;;;;;;5069778;28;20253;-83
2021/12/15 11:48:50;;;;;;;10.90;7.13;;;8.30;99.90;;;;;;5069195;28;20228;-83
2021/12/15 11:51:31;;;;;;;10.50;7.13;;;8.40;99.90;;;;;;5072061;28;20219;-83
2021/12/15 11:53:59;;;;;;;12.27;6.45;;;8.20;99.90;;;;;;5072762;28;20200;-84
2021/12/15 11:56:30;;;;;;;11.10;7.60;;;8.20;99.90;;;;;;5068525;28;20207;-85
2021/12/15 11:59:01;;;;;;;15.45;8.43;;;8.20;99.90;;;;;;5064505;28;20234;-82
2021/12/15 12:01:52;;;;;;;11.10;7.93;;;8.50;99.90;;;;;;5061114;28;20224;-81
2021/12/15 12:04:25;;;;;;;11.20;8.50;;;8.50;99.90;;;;;;5059463;28;20198;-81
2021/12/15 12:06:56;;;;;;;14.80;8.93;;;8.30;99.90;;;;;;5062468;28;20306;-82
2021/12/15 12:09:24;;;;;;;10.13;7.85;;;8.20;99.90;;;;;;5062086;28;20228;-82
2021/12/15 12:11:56;;;;;;;10.05;8.07;;;8.30;99.90;;;;;;5063302;28;20243;-82
2021/12/15 12:14:48;;;;;;;10.30;7.50;;;8.20;99.90;;;;;;5062380;28;20192;-83
2021/12/15 12:17:17;;;;;;;10.90;7.82;;;8.30;99.90;;;;;;5060977;28;20590;-82
2021/12/15 12:19:50;;;;;;;17.67;8.48;;;8.20;99.90;;;;;;5060828;28;20229;-83
2021/12/15 12:22:19;;;;;;;8.70;5.72;;;8.20;99.90;;;;;;5060825;28;20191;-81
2021/12/15 12:24:48;;;;;;;11.48;7.55;;;8.50;99.90;;;;;;5060336;28;20207;-81
2021/12/15 12:27:16;;;;;;;10.15;7.60;;;8.50;99.90;;;;;;5060334;28;20203;-80
2021/12/15 12:29:43;;;;;;;12.27;8.52;;;8.20;99.90;;;;;;5059145;28;20277;-80
2021/12/15 12:32:11;;;;;;;11.07;8.35;;;8.10;99.90;;;;;;5059738;28;20207;-81
2021/12/15 12:34:40;;;;;;;10.52;7.20;;;8.20;99.90;;;;;;5093915;22;20788;-84
2021/12/15 12:37:11;;;;;;;12.30;8.50;;;8.20;99.90;;;;;;5069087;28;20293;-84
2021/12/15 12:39:39;;;;;;;10.88;7.30;;;8.20;99.90;;;;;;5064548;28;20364;-80
2021/12/15 12:42:07;;;;;;;12.00;9.27;;;8.40;99.90;;;;;;5061419;28;20233;-80
2021/12/15 12:44:38;;;;;;;10.20;7.97;;;8.40;99.90;;;;;;5060916;28;20226;-79
2021/12/15 12:47:18;;;;;;;10.68;8.32;;;8.30;99.90;;;;;;5061477;28;20283;-79
2021/12/15 12:50:03;;;;;;;20.27;13.00;;;7.70;99.90;;;;;;5062243;28;20224;-79
2021/12/15 13:01:17;;;;;;;9.35;7.80;;;8.30;99.90;;;;;;5061292;28;20259;-80
2021/12/15 13:03:50;;;;;;;11.43;8.43;;;8.10;99.90;;;;;;5061708;28;20231;-78
2021/12/15 13:06:18;;;;;;;16.30;12.13;;;8.20;99.90;;;;;;5060765;28;20193;-80
2021/12/15 13:08:49;;;;;;;9.68;7.78;;;8.20;99.90;;;;;;5060103;28;20213;-79
2021/12/15 13:11:29;;;;;;;11.40;8.32;;;8.20;99.90;;;;;;5060720;28;20219;-81
2021/12/15 13:14:04;;;;;;;8.85;7.72;;;8.20;99.90;;;;;;5063257;28;20322;-83
2021/12/15 13:16:36;;;;;;;14.60;11.23;;;8.30;99.90;;;;;;5067942;28;20287;-84
2021/12/15 13:19:11;;;;;;;9.10;7.13;;;7.90;99.90;;;;;;5074939;28;20192;-83
2021/12/15 13:21:58;;;;;;;9.13;7.85;;;8.20;99.90;;;;;;5068901;28;20250;-80
2021/12/15 13:30:26;;;;;;;10.35;8.18;;;8.10;99.90;;;;;;5061427;28;20217;-83
2021/12/15 13:32:59;;;;;;;11.50;8.13;;;7.90;99.90;;;;;;5060676;28;20237;-83
2021/12/15 13:35:28;;;;;;;9.82;7.78;;;8.00;99.90;;;;;;5063021;28;20242;-83
2021/12/15 13:37:59;;;;;;;10.75;7.68;;;8.20;99.90;;;;;;5061812;28;20230;-81
2021/12/15 13:40:59;;;;;;;9.00;7.43;;;8.10;99.90;;;;;;5058531;28;20187;-83
2021/12/15 13:43:45;;;;;;;11.07;7.43;;;8.10;99.90;;;;;;5058525;28;21653;-81
2021/12/15 13:46:38;;;;;;;11.18;7.97;;;8.20;99.90;;;;;;5058776;28;20208;-82
2021/12/15 13:49:23;;;;;;;9.63;7.88;;;8.20;99.90;;;;;;5054123;28;20250;-81
2021/12/15 13:52:09;;;;;;;8.65;6.82;;;8.10;99.90;;;;;;5058214;28;20733;-79
2021/12/15 13:54:59;;;;;;;9.40;7.50;;;8.00;99.90;;;;;;5058592;28;20276;-79
2021/12/15 13:57:31;;;;;;;10.52;6.85;;;7.90;99.90;;;;;;5057827;28;20183;-78
2021/12/15 14:00:10;;;;;;;8.77;6.47;;;8.00;99.90;;;;;;5057076;28;20191;-85
2021/12/15 14:02:40;;;;;;;8.80;6.55;;;8.10;99.90;;;;;;5065344;28;20212;-86
2021/12/15 14:05:21;;;;;;;9.70;7.28;;;8.30;99.90;;;;;;5064269;28;20247;-85
2021/12/15 14:07:50;;;;;;;10.25;8.38;;;8.30;99.90;;;;;;5063642;28;20196;-83
2021/12/15 14:10:46;;;;;;;13.52;8.57;;;8.10;99.90;;;;;;5060795;28;20314;-81